sensor_id;sensor_type;location;lat;lon;timestamp;P1;durP1;ratioP1;P2;durP2;ratioP2
70487;SDS011;57976;48.174;16.370;2024-03-02T00:00:28;43.90;;;20.90;;
70487;SDS011;57976;48.174;16.370;2024-03-02T00:02:33;44.60;;;21.50;;
70487;SDS011;57976;48.174;16.370;2024-03-02T00:04:48;45.20;;;22.80;;
70487;SDS011;57976;48.174;16.370;2024-03-02T00:06:53;44.40;;;22.60;;
70487;SDS011;57976;48.174;16.370;2024-03-02T00:08:59;44.00;;;22.20;;
70487;SDS011;57976;48.174;16.370;2024-03-02T00:11:04;46.70;;;23.20;;
70487;SDS011;57976;48.174;16.370;2024-03-02T00:13:08;46.50;;;23.00;;
70487;SDS011;57976;48.174;16.370;2024-03-02T00:15:24;45.10;;;22.20;;
70487;SDS011;57976;48.174;16.370;2024-03-02T00:17:45;47.40;;;22.50;;
70487;SDS011;57976;48.174;16.370;2024-03-02T00:19:58;46.60;;;22.60;;
70487;SDS011;57976;48.174;16.370;2024-03-02T00:22:03;43.80;;;21.40;;
70487;SDS011;57976;48.174;16.370;2024-03-02T00:24:12;46.40;;;22.60;;
70487;SDS011;57976;48.174;16.370;2024-03-02T00:26:24;43.20;;;21.90;;
70487;SDS011;57976;48.174;16.370;2024-03-02T00:28:29;44.80;;;22.00;;
70487;SDS011;57976;48.174;16.370;2024-03-02T00:30:41;44.00;;;21.60;;
70487;SDS011;57976;48.174;16.370;2024-03-02T00:32:55;45.80;;;22.90;;
70487;SDS011;57976;48.174;16.370;2024-03-02T00:35:00;46.10;;;21.90;;
70487;SDS011;57976;48.174;16.370;2024-03-02T00:37:07;45.40;;;22.70;;
70487;SDS011;57976;48.174;16.370;2024-03-02T00:39:16;44.40;;;21.50;;
70487;SDS011;57976;48.174;16.370;2024-03-02T00:41:22;46.00;;;22.10;;
70487;SDS011;57976;48.174;16.370;2024-03-02T00:46:03;45.00;;;22.30;;
70487;SDS011;57976;48.174;16.370;2024-03-02T00:48:09;45.50;;;21.50;;
70487;SDS011;57976;48.174;16.370;2024-03-02T00:50:14;44.00;;;21.70;;
70487;SDS011;57976;48.174;16.370;2024-03-02T00:52:32;44.90;;;21.50;;
70487;SDS011;57976;48.174;16.370;2024-03-02T00:54:37;43.60;;;21.00;;
70487;SDS011;57976;48.174;16.370;2024-03-02T00:56:42;46.70;;;21.40;;
70487;SDS011;57976;48.174;16.370;2024-03-02T00:58:47;45.60;;;22.00;;
70487;SDS011;57976;48.174;16.370;2024-03-02T01:00:52;44.50;;;22.10;;
70487;SDS011;57976;48.174;16.370;2024-03-02T01:02:59;44.00;;;22.40;;
70487;SDS011;57976;48.174;16.370;2024-03-02T01:05:03;44.50;;;22.20;;
70487;SDS011;57976;48.174;16.370;2024-03-02T01:07:08;46.60;;;22.50;;
70487;SDS011;57976;48.174;16.370;2024-03-02T01:09:13;46.00;;;21.90;;
70487;SDS011;57976;48.174;16.370;2024-03-02T01:11:18;48.70;;;21.90;;
70487;SDS011;57976;48.174;16.370;2024-03-02T01:13:26;45.60;;;22.20;;
70487;SDS011;57976;48.174;16.370;2024-03-02T01:15:31;42.50;;;20.90;;
70487;SDS011;57976;48.174;16.370;2024-03-02T01:17:39;46.00;;;22.00;;
70487;SDS011;57976;48.174;16.370;2024-03-02T01:19:44;41.40;;;20.90;;
70487;SDS011;57976;48.174;16.370;2024-03-02T01:21:49;44.00;;;21.20;;
70487;SDS011;57976;48.174;16.370;2024-03-02T01:23:54;45.40;;;21.50;;
70487;SDS011;57976;48.174;16.370;2024-03-02T01:25:58;46.00;;;21.50;;
70487;SDS011;57976;48.174;16.370;2024-03-02T01:28:03;42.80;;;21.10;;
70487;SDS011;57976;48.174;16.370;2024-03-02T01:30:11;44.70;;;21.80;;
70487;SDS011;57976;48.174;16.370;2024-03-02T01:32:19;48.00;;;21.60;;
70487;SDS011;57976;48.174;16.370;2024-03-02T01:34:24;42.20;;;21.10;;
70487;SDS011;57976;48.174;16.370;2024-03-02T01:36:29;42.90;;;20.20;;
70487;SDS011;57976;48.174;16.370;2024-03-02T01:38:34;44.00;;;21.00;;
70487;SDS011;57976;48.174;16.370;2024-03-02T01:40:39;44.80;;;22.00;;
70487;SDS011;57976;48.174;16.370;2024-03-02T01:42:49;46.60;;;21.00;;
70487;SDS011;57976;48.174;16.370;2024-03-02T01:44:57;45.00;;;21.40;;
70487;SDS011;57976;48.174;16.370;2024-03-02T01:47:02;41.40;;;20.30;;
70487;SDS011;57976;48.174;16.370;2024-03-02T01:49:06;44.10;;;21.90;;
70487;SDS011;57976;48.174;16.370;2024-03-02T01:51:11;45.30;;;21.20;;
70487;SDS011;57976;48.174;16.370;2024-03-02T01:53:16;45.00;;;21.70;;
70487;SDS011;57976;48.174;16.370;2024-03-02T01:55:21;44.60;;;21.60;;
70487;SDS011;57976;48.174;16.370;2024-03-02T01:57:26;44.00;;;20.70;;
70487;SDS011;57976;48.174;16.370;2024-03-02T01:59:30;43.30;;;20.90;;
70487;SDS011;57976;48.174;16.370;2024-03-02T02:01:36;42.60;;;20.50;;
70487;SDS011;57976;48.174;16.370;2024-03-02T02:03:41;43.80;;;21.50;;
70487;SDS011;57976;48.174;16.370;2024-03-02T02:05:49;41.70;;;20.30;;
70487;SDS011;57976;48.174;16.370;2024-03-02T02:07:54;41.50;;;20.10;;
70487;SDS011;57976;48.174;16.370;2024-03-02T02:09:58;43.50;;;20.80;;
70487;SDS011;57976;48.174;16.370;2024-03-02T02:12:04;41.40;;;20.10;;
70487;SDS011;57976;48.174;16.370;2024-03-02T02:14:09;41.80;;;19.70;;
70487;SDS011;57976;48.174;16.370;2024-03-02T02:16:15;40.90;;;19.90;;
70487;SDS011;57976;48.174;16.370;2024-03-02T02:18:20;43.10;;;19.90;;
70487;SDS011;57976;48.174;16.370;2024-03-02T02:20:25;41.60;;;19.50;;
70487;SDS011;57976;48.174;16.370;2024-03-02T02:22:34;39.60;;;19.00;;
70487;SDS011;57976;48.174;16.370;2024-03-02T02:24:41;38.70;;;18.40;;
70487;SDS011;57976;48.174;16.370;2024-03-02T02:26:49;38.80;;;18.90;;
70487;SDS011;57976;48.174;16.370;2024-03-02T02:28:53;38.20;;;18.60;;
70487;SDS011;57976;48.174;16.370;2024-03-02T02:31:01;37.70;;;18.80;;
70487;SDS011;57976;48.174;16.370;2024-03-02T02:33:06;36.80;;;18.10;;
70487;SDS011;57976;48.174;16.370;2024-03-02T02:35:12;38.50;;;18.80;;
70487;SDS011;57976;48.174;16.370;2024-03-02T02:37:17;38.50;;;18.40;;
70487;SDS011;57976;48.174;16.370;2024-03-02T02:39:24;36.60;;;17.80;;
70487;SDS011;57976;48.174;16.370;2024-03-02T02:41:29;37.90;;;17.90;;
70487;SDS011;57976;48.174;16.370;2024-03-02T02:43:34;35.00;;;17.00;;
70487;SDS011;57976;48.174;16.370;2024-03-02T02:45:38;37.20;;;17.40;;
70487;SDS011;57976;48.174;16.370;2024-03-02T02:47:44;37.10;;;18.20;;
70487;SDS011;57976;48.174;16.370;2024-03-02T02:49:48;36.60;;;18.00;;
70487;SDS011;57976;48.174;16.370;2024-03-02T02:51:53;37.60;;;18.20;;
70487;SDS011;57976;48.174;16.370;2024-03-02T02:53:58;40.80;;;18.90;;
70487;SDS011;57976;48.174;16.370;2024-03-02T02:56:06;36.50;;;17.60;;
70487;SDS011;57976;48.174;16.370;2024-03-02T02:58:11;36.90;;;17.80;;
70487;SDS011;57976;48.174;16.370;2024-03-02T03:00:16;35.20;;;18.20;;
70487;SDS011;57976;48.174;16.370;2024-03-02T03:02:22;36.40;;;18.00;;
70487;SDS011;57976;48.174;16.370;2024-03-02T03:04:26;35.20;;;17.70;;
70487;SDS011;57976;48.174;16.370;2024-03-02T03:06:32;36.00;;;17.80;;
70487;SDS011;57976;48.174;16.370;2024-03-02T03:08:39;35.50;;;17.00;;
70487;SDS011;57976;48.174;16.370;2024-03-02T03:10:44;38.70;;;17.70;;
70487;SDS011;57976;48.174;16.370;2024-03-02T03:12:50;38.60;;;18.30;;
70487;SDS011;57976;48.174;16.370;2024-03-02T03:14:57;36.80;;;17.50;;
70487;SDS011;57976;48.174;16.370;2024-03-02T03:17:05;38.40;;;18.60;;
70487;SDS011;57976;48.174;16.370;2024-03-02T03:19:10;38.30;;;19.00;;
70487;SDS011;57976;48.174;16.370;2024-03-02T03:21:17;37.80;;;18.50;;
70487;SDS011;57976;48.174;16.370;2024-03-02T03:23:22;38.90;;;19.30;;
70487;SDS011;57976;48.174;16.370;2024-03-02T03:25:27;40.50;;;18.70;;
70487;SDS011;57976;48.174;16.370;2024-03-02T03:27:34;39.50;;;18.00;;
70487;SDS011;57976;48.174;16.370;2024-03-02T03:29:40;40.20;;;18.90;;
70487;SDS011;57976;48.174;16.370;2024-03-02T03:31:47;38.30;;;18.40;;
70487;SDS011;57976;48.174;16.370;2024-03-02T03:33:52;39.70;;;18.30;;
70487;SDS011;57976;48.174;16.370;2024-03-02T03:35:57;38.00;;;18.40;;
70487;SDS011;57976;48.174;16.370;2024-03-02T03:38:01;38.50;;;18.50;;
70487;SDS011;57976;48.174;16.370;2024-03-02T03:40:08;38.40;;;18.90;;
70487;SDS011;57976;48.174;16.370;2024-03-02T03:42:13;38.20;;;18.40;;
70487;SDS011;57976;48.174;16.370;2024-03-02T03:44:18;40.40;;;19.10;;
70487;SDS011;57976;48.174;16.370;2024-03-02T03:46:26;41.30;;;18.90;;
70487;SDS011;57976;48.174;16.370;2024-03-02T03:48:33;37.90;;;18.70;;
70487;SDS011;57976;48.174;16.370;2024-03-02T03:50:38;36.50;;;17.50;;
70487;SDS011;57976;48.174;16.370;2024-03-02T03:52:43;39.30;;;18.10;;
70487;SDS011;57976;48.174;16.370;2024-03-02T03:54:50;40.00;;;18.20;;
70487;SDS011;57976;48.174;16.370;2024-03-02T03:56:55;39.50;;;18.80;;
70487;SDS011;57976;48.174;16.370;2024-03-02T03:59:00;41.10;;;18.90;;
70487;SDS011;57976;48.174;16.370;2024-03-02T04:01:04;38.90;;;18.20;;
70487;SDS011;57976;48.174;16.370;2024-03-02T04:03:09;40.20;;;19.10;;
70487;SDS011;57976;48.174;16.370;2024-03-02T04:05:16;39.40;;;18.70;;
70487;SDS011;57976;48.174;16.370;2024-03-02T04:07:21;41.60;;;18.60;;
70487;SDS011;57976;48.174;16.370;2024-03-02T04:09:29;40.60;;;17.20;;
70487;SDS011;57976;48.174;16.370;2024-03-02T04:11:35;44.50;;;19.30;;
70487;SDS011;57976;48.174;16.370;2024-03-02T04:13:40;44.10;;;20.50;;
70487;SDS011;57976;48.174;16.370;2024-03-02T04:15:46;42.00;;;20.20;;
70487;SDS011;57976;48.174;16.370;2024-03-02T04:17:50;42.00;;;19.10;;
70487;SDS011;57976;48.174;16.370;2024-03-02T04:19:55;39.40;;;19.00;;
70487;SDS011;57976;48.174;16.370;2024-03-02T04:22:03;40.20;;;18.40;;
70487;SDS011;57976;48.174;16.370;2024-03-02T04:24:21;43.30;;;18.90;;
70487;SDS011;57976;48.174;16.370;2024-03-02T04:26:26;45.90;;;20.10;;
70487;SDS011;57976;48.174;16.370;2024-03-02T04:28:31;42.60;;;19.60;;
70487;SDS011;57976;48.174;16.370;2024-03-02T04:30:35;43.40;;;19.80;;
70487;SDS011;57976;48.174;16.370;2024-03-02T04:32:41;41.60;;;19.40;;
70487;SDS011;57976;48.174;16.370;2024-03-02T04:34:49;42.40;;;18.90;;
70487;SDS011;57976;48.174;16.370;2024-03-02T04:36:54;42.30;;;18.80;;
70487;SDS011;57976;48.174;16.370;2024-03-02T04:38:59;40.60;;;18.60;;
70487;SDS011;57976;48.174;16.370;2024-03-02T04:41:07;40.20;;;18.40;;
70487;SDS011;57976;48.174;16.370;2024-03-02T04:43:12;40.60;;;19.10;;
70487;SDS011;57976;48.174;16.370;2024-03-02T04:45:16;39.00;;;18.30;;
70487;SDS011;57976;48.174;16.370;2024-03-02T04:47:21;41.50;;;19.30;;
70487;SDS011;57976;48.174;16.370;2024-03-02T04:49:25;41.30;;;19.50;;
70487;SDS011;57976;48.174;16.370;2024-03-02T04:51:30;42.10;;;19.10;;
70487;SDS011;57976;48.174;16.370;2024-03-02T04:53:35;42.50;;;19.20;;
70487;SDS011;57976;48.174;16.370;2024-03-02T04:55:40;38.90;;;18.60;;
70487;SDS011;57976;48.174;16.370;2024-03-02T04:57:45;41.20;;;18.90;;
70487;SDS011;57976;48.174;16.370;2024-03-02T04:59:50;39.30;;;18.90;;
70487;SDS011;57976;48.174;16.370;2024-03-02T05:01:57;42.10;;;19.00;;
70487;SDS011;57976;48.174;16.370;2024-03-02T05:04:05;40.80;;;18.30;;
70487;SDS011;57976;48.174;16.370;2024-03-02T05:06:09;40.60;;;18.50;;
70487;SDS011;57976;48.174;16.370;2024-03-02T05:08:14;42.40;;;19.90;;
70487;SDS011;57976;48.174;16.370;2024-03-02T05:10:18;38.10;;;18.20;;
70487;SDS011;57976;48.174;16.370;2024-03-02T05:12:23;40.70;;;18.80;;
70487;SDS011;57976;48.174;16.370;2024-03-02T05:14:37;40.10;;;19.00;;
70487;SDS011;57976;48.174;16.370;2024-03-02T05:16:42;37.30;;;17.50;;
70487;SDS011;57976;48.174;16.370;2024-03-02T05:18:47;35.70;;;17.60;;
70487;SDS011;57976;48.174;16.370;2024-03-02T05:20:52;33.20;;;16.90;;
70487;SDS011;57976;48.174;16.370;2024-03-02T05:22:57;36.50;;;17.40;;
70487;SDS011;57976;48.174;16.370;2024-03-02T05:25:02;35.80;;;17.30;;
70487;SDS011;57976;48.174;16.370;2024-03-02T05:27:08;34.80;;;17.70;;
70487;SDS011;57976;48.174;16.370;2024-03-02T05:29:13;31.80;;;16.30;;
70487;SDS011;57976;48.174;16.370;2024-03-02T05:31:18;35.00;;;17.50;;
70487;SDS011;57976;48.174;16.370;2024-03-02T05:33:23;34.00;;;16.40;;
70487;SDS011;57976;48.174;16.370;2024-03-02T05:35:28;35.30;;;17.10;;
70487;SDS011;57976;48.174;16.370;2024-03-02T05:37:32;31.20;;;15.30;;
70487;SDS011;57976;48.174;16.370;2024-03-02T05:39:37;32.10;;;16.50;;
70487;SDS011;57976;48.174;16.370;2024-03-02T05:41:42;32.00;;;15.80;;
70487;SDS011;57976;48.174;16.370;2024-03-02T05:43:47;31.50;;;15.70;;
70487;SDS011;57976;48.174;16.370;2024-03-02T05:45:51;31.30;;;15.70;;
70487;SDS011;57976;48.174;16.370;2024-03-02T05:47:58;33.00;;;15.50;;
70487;SDS011;57976;48.174;16.370;2024-03-02T05:50:03;31.70;;;15.70;;
70487;SDS011;57976;48.174;16.370;2024-03-02T05:52:08;31.10;;;15.60;;
70487;SDS011;57976;48.174;16.370;2024-03-02T05:54:16;32.10;;;15.80;;
70487;SDS011;57976;48.174;16.370;2024-03-02T05:56:26;27.90;;;14.40;;
70487;SDS011;57976;48.174;16.370;2024-03-02T05:58:31;28.20;;;14.30;;
70487;SDS011;57976;48.174;16.370;2024-03-02T06:00:37;28.70;;;14.70;;
70487;SDS011;57976;48.174;16.370;2024-03-02T06:02:42;26.20;;;14.20;;
70487;SDS011;57976;48.174;16.370;2024-03-02T06:04:47;27.10;;;14.10;;
70487;SDS011;57976;48.174;16.370;2024-03-02T06:06:52;26.50;;;13.10;;
70487;SDS011;57976;48.174;16.370;2024-03-02T06:09:00;26.10;;;13.60;;
70487;SDS011;57976;48.174;16.370;2024-03-02T06:11:04;26.60;;;13.90;;
70487;SDS011;57976;48.174;16.370;2024-03-02T06:13:09;26.60;;;14.00;;
70487;SDS011;57976;48.174;16.370;2024-03-02T06:15:14;26.60;;;13.70;;
70487;SDS011;57976;48.174;16.370;2024-03-02T06:17:19;26.20;;;14.40;;
70487;SDS011;57976;48.174;16.370;2024-03-02T06:19:23;26.60;;;14.40;;
70487;SDS011;57976;48.174;16.370;2024-03-02T06:21:28;29.40;;;15.60;;
70487;SDS011;57976;48.174;16.370;2024-03-02T06:23:33;29.20;;;14.90;;
70487;SDS011;57976;48.174;16.370;2024-03-02T06:25:41;31.00;;;15.80;;
70487;SDS011;57976;48.174;16.370;2024-03-02T06:27:46;29.20;;;14.90;;
70487;SDS011;57976;48.174;16.370;2024-03-02T06:29:51;30.20;;;15.30;;
70487;SDS011;57976;48.174;16.370;2024-03-02T06:31:55;29.10;;;14.70;;
70487;SDS011;57976;48.174;16.370;2024-03-02T06:34:03;30.20;;;15.40;;
70487;SDS011;57976;48.174;16.370;2024-03-02T06:36:08;31.00;;;15.40;;
70487;SDS011;57976;48.174;16.370;2024-03-02T06:38:12;30.70;;;15.40;;
70487;SDS011;57976;48.174;16.370;2024-03-02T06:40:17;31.60;;;16.00;;
70487;SDS011;57976;48.174;16.370;2024-03-02T06:42:22;29.00;;;15.30;;
70487;SDS011;57976;48.174;16.370;2024-03-02T06:44:27;29.40;;;15.50;;
70487;SDS011;57976;48.174;16.370;2024-03-02T06:46:33;28.20;;;14.70;;
70487;SDS011;57976;48.174;16.370;2024-03-02T06:48:38;31.30;;;15.80;;
70487;SDS011;57976;48.174;16.370;2024-03-02T06:50:42;31.20;;;16.40;;
70487;SDS011;57976;48.174;16.370;2024-03-02T06:52:47;31.30;;;15.30;;
70487;SDS011;57976;48.174;16.370;2024-03-02T06:54:55;31.60;;;16.00;;
70487;SDS011;57976;48.174;16.370;2024-03-02T06:57:03;31.00;;;15.10;;
70487;SDS011;57976;48.174;16.370;2024-03-02T06:59:09;27.90;;;15.20;;
70487;SDS011;57976;48.174;16.370;2024-03-02T07:01:14;29.60;;;15.10;;
70487;SDS011;57976;48.174;16.370;2024-03-02T07:03:18;31.20;;;16.00;;
70487;SDS011;57976;48.174;16.370;2024-03-02T07:05:23;30.50;;;15.40;;
70487;SDS011;57976;48.174;16.370;2024-03-02T07:07:28;29.20;;;15.00;;
70487;SDS011;57976;48.174;16.370;2024-03-02T07:09:33;29.70;;;15.10;;
70487;SDS011;57976;48.174;16.370;2024-03-02T07:11:37;29.90;;;15.50;;
70487;SDS011;57976;48.174;16.370;2024-03-02T07:13:45;28.40;;;14.20;;
70487;SDS011;57976;48.174;16.370;2024-03-02T07:15:53;27.60;;;14.30;;
70487;SDS011;57976;48.174;16.370;2024-03-02T07:17:57;29.00;;;15.40;;
70487;SDS011;57976;48.174;16.370;2024-03-02T07:20:02;34.00;;;16.60;;
70487;SDS011;57976;48.174;16.370;2024-03-02T07:22:12;35.40;;;16.90;;
70487;SDS011;57976;48.174;16.370;2024-03-02T07:24:17;32.20;;;16.50;;
70487;SDS011;57976;48.174;16.370;2024-03-02T07:26:21;29.70;;;15.30;;
70487;SDS011;57976;48.174;16.370;2024-03-02T07:28:47;28.50;;;14.90;;
70487;SDS011;57976;48.174;16.370;2024-03-02T07:30:58;31.10;;;16.20;;
70487;SDS011;57976;48.174;16.370;2024-03-02T07:33:04;29.30;;;14.60;;
70487;SDS011;57976;48.174;16.370;2024-03-02T07:35:09;33.50;;;17.20;;
70487;SDS011;57976;48.174;16.370;2024-03-02T07:37:14;32.20;;;16.80;;
70487;SDS011;57976;48.174;16.370;2024-03-02T07:39:21;33.40;;;17.10;;
70487;SDS011;57976;48.174;16.370;2024-03-02T07:41:26;31.20;;;15.70;;
70487;SDS011;57976;48.174;16.370;2024-03-02T07:43:31;36.50;;;18.50;;
70487;SDS011;57976;48.174;16.370;2024-03-02T07:45:36;34.00;;;17.50;;
70487;SDS011;57976;48.174;16.370;2024-03-02T07:47:40;33.70;;;18.00;;
70487;SDS011;57976;48.174;16.370;2024-03-02T07:49:45;32.10;;;17.10;;
70487;SDS011;57976;48.174;16.370;2024-03-02T07:51:50;29.10;;;15.30;;
70487;SDS011;57976;48.174;16.370;2024-03-02T07:53:55;33.20;;;17.20;;
70487;SDS011;57976;48.174;16.370;2024-03-02T07:55:59;35.00;;;17.60;;
70487;SDS011;57976;48.174;16.370;2024-03-02T07:58:07;40.20;;;19.20;;
70487;SDS011;57976;48.174;16.370;2024-03-02T08:00:18;33.40;;;16.80;;
70487;SDS011;57976;48.174;16.370;2024-03-02T08:02:23;30.70;;;16.10;;
70487;SDS011;57976;48.174;16.370;2024-03-02T08:04:28;27.30;;;14.60;;
70487;SDS011;57976;48.174;16.370;2024-03-02T08:06:38;26.60;;;14.40;;
70487;SDS011;57976;48.174;16.370;2024-03-02T08:08:44;26.10;;;14.10;;
70487;SDS011;57976;48.174;16.370;2024-03-02T08:10:49;29.50;;;15.00;;
70487;SDS011;57976;48.174;16.370;2024-03-02T08:12:54;24.40;;;13.10;;
70487;SDS011;57976;48.174;16.370;2024-03-02T08:14:59;23.70;;;13.10;;
70487;SDS011;57976;48.174;16.370;2024-03-02T08:17:04;31.60;;;16.20;;
70487;SDS011;57976;48.174;16.370;2024-03-02T08:19:11;30.60;;;16.20;;
70487;SDS011;57976;48.174;16.370;2024-03-02T08:21:16;32.20;;;16.90;;
70487;SDS011;57976;48.174;16.370;2024-03-02T08:23:21;27.90;;;15.90;;
70487;SDS011;57976;48.174;16.370;2024-03-02T08:25:26;46.90;;;26.40;;
70487;SDS011;57976;48.174;16.370;2024-03-02T08:27:31;43.90;;;24.50;;
70487;SDS011;57976;48.174;16.370;2024-03-02T08:29:36;26.80;;;15.30;;
70487;SDS011;57976;48.174;16.370;2024-03-02T08:31:41;25.40;;;13.60;;
70487;SDS011;57976;48.174;16.370;2024-03-02T08:33:51;23.50;;;13.10;;
70487;SDS011;57976;48.174;16.370;2024-03-02T08:35:55;23.30;;;12.40;;
70487;SDS011;57976;48.174;16.370;2024-03-02T08:38:00;24.80;;;13.90;;
70487;SDS011;57976;48.174;16.370;2024-03-02T08:40:09;23.30;;;13.00;;
70487;SDS011;57976;48.174;16.370;2024-03-02T08:42:19;26.50;;;13.90;;
70487;SDS011;57976;48.174;16.370;2024-03-02T08:44:27;27.30;;;14.40;;
70487;SDS011;57976;48.174;16.370;2024-03-02T08:46:32;30.90;;;18.00;;
70487;SDS011;57976;48.174;16.370;2024-03-02T08:48:37;25.90;;;14.30;;
70487;SDS011;57976;48.174;16.370;2024-03-02T08:50:42;35.90;;;21.30;;
70487;SDS011;57976;48.174;16.370;2024-03-02T08:52:47;37.40;;;23.50;;
70487;SDS011;57976;48.174;16.370;2024-03-02T08:54:51;43.60;;;29.30;;
70487;SDS011;57976;48.174;16.370;2024-03-02T08:56:56;32.00;;;18.80;;
70487;SDS011;57976;48.174;16.370;2024-03-02T08:59:01;55.00;;;37.20;;
70487;SDS011;57976;48.174;16.370;2024-03-02T09:01:06;33.40;;;19.00;;
70487;SDS011;57976;48.174;16.370;2024-03-02T09:03:14;31.20;;;17.40;;
70487;SDS011;57976;48.174;16.370;2024-03-02T09:05:20;29.80;;;15.90;;
70487;SDS011;57976;48.174;16.370;2024-03-02T09:07:24;28.10;;;14.20;;
70487;SDS011;57976;48.174;16.370;2024-03-02T09:09:29;28.30;;;15.00;;
70487;SDS011;57976;48.174;16.370;2024-03-02T09:11:36;31.10;;;15.50;;
70487;SDS011;57976;48.174;16.370;2024-03-02T09:13:41;28.10;;;14.20;;
70487;SDS011;57976;48.174;16.370;2024-03-02T09:15:46;33.20;;;16.20;;
70487;SDS011;57976;48.174;16.370;2024-03-02T09:17:51;33.20;;;15.70;;
70487;SDS011;57976;48.174;16.370;2024-03-02T09:19:56;33.60;;;16.30;;
70487;SDS011;57976;48.174;16.370;2024-03-02T09:22:01;31.50;;;16.40;;
70487;SDS011;57976;48.174;16.370;2024-03-02T09:24:06;33.20;;;16.40;;
70487;SDS011;57976;48.174;16.370;2024-03-02T09:26:14;34.30;;;17.00;;
70487;SDS011;57976;48.174;16.370;2024-03-02T09:28:19;33.10;;;17.00;;
70487;SDS011;57976;48.174;16.370;2024-03-02T09:30:24;34.70;;;17.10;;
70487;SDS011;57976;48.174;16.370;2024-03-02T09:32:29;35.20;;;17.10;;
70487;SDS011;57976;48.174;16.370;2024-03-02T09:34:33;33.80;;;18.00;;
70487;SDS011;57976;48.174;16.370;2024-03-02T09:36:38;33.80;;;16.90;;
70487;SDS011;57976;48.174;16.370;2024-03-02T09:38:45;35.90;;;17.70;;
70487;SDS011;57976;48.174;16.370;2024-03-02T09:40:49;34.70;;;17.60;;
70487;SDS011;57976;48.174;16.370;2024-03-02T09:42:54;31.20;;;16.50;;
70487;SDS011;57976;48.174;16.370;2024-03-02T09:44:59;36.20;;;18.10;;
70487;SDS011;57976;48.174;16.370;2024-03-02T09:47:06;33.50;;;17.40;;
70487;SDS011;57976;48.174;16.370;2024-03-02T09:49:11;41.10;;;21.10;;
70487;SDS011;57976;48.174;16.370;2024-03-02T09:51:16;42.00;;;21.60;;
70487;SDS011;57976;48.174;16.370;2024-03-02T09:53:22;38.60;;;18.80;;
70487;SDS011;57976;48.174;16.370;2024-03-02T09:55:33;36.60;;;18.80;;
70487;SDS011;57976;48.174;16.370;2024-03-02T09:57:38;33.80;;;17.30;;
70487;SDS011;57976;48.174;16.370;2024-03-02T09:59:43;35.90;;;18.90;;
70487;SDS011;57976;48.174;16.370;2024-03-02T10:01:58;44.30;;;23.50;;
70487;SDS011;57976;48.174;16.370;2024-03-02T10:04:04;36.50;;;18.90;;
70487;SDS011;57976;48.174;16.370;2024-03-02T10:06:22;36.50;;;19.00;;
70487;SDS011;57976;48.174;16.370;2024-03-02T10:08:27;35.90;;;18.60;;
70487;SDS011;57976;48.174;16.370;2024-03-02T10:10:47;36.30;;;18.90;;
70487;SDS011;57976;48.174;16.370;2024-03-02T10:12:57;38.30;;;19.80;;
70487;SDS011;57976;48.174;16.370;2024-03-02T10:15:08;36.10;;;18.50;;
70487;SDS011;57976;48.174;16.370;2024-03-02T10:17:13;34.80;;;18.90;;
70487;SDS011;57976;48.174;16.370;2024-03-02T10:19:20;34.90;;;18.80;;
70487;SDS011;57976;48.174;16.370;2024-03-02T10:21:26;34.00;;;18.40;;
70487;SDS011;57976;48.174;16.370;2024-03-02T10:23:31;37.60;;;19.70;;
70487;SDS011;57976;48.174;16.370;2024-03-02T10:25:36;35.10;;;19.40;;
70487;SDS011;57976;48.174;16.370;2024-03-02T10:27:53;38.40;;;19.40;;
70487;SDS011;57976;48.174;16.370;2024-03-02T10:30:05;37.80;;;20.20;;
70487;SDS011;57976;48.174;16.370;2024-03-02T10:32:14;36.90;;;19.50;;
70487;SDS011;57976;48.174;16.370;2024-03-02T10:34:19;37.80;;;19.80;;
70487;SDS011;57976;48.174;16.370;2024-03-02T10:36:26;37.40;;;20.00;;
70487;SDS011;57976;48.174;16.370;2024-03-02T10:38:34;39.30;;;20.50;;
70487;SDS011;57976;48.174;16.370;2024-03-02T10:40:42;38.20;;;20.70;;
70487;SDS011;57976;48.174;16.370;2024-03-02T10:42:51;38.10;;;20.20;;
70487;SDS011;57976;48.174;16.370;2024-03-02T10:44:59;36.50;;;20.10;;
70487;SDS011;57976;48.174;16.370;2024-03-02T10:47:04;39.30;;;20.20;;
70487;SDS011;57976;48.174;16.370;2024-03-02T10:49:11;40.40;;;21.00;;
70487;SDS011;57976;48.174;16.370;2024-03-02T10:51:16;41.30;;;20.70;;
70487;SDS011;57976;48.174;16.370;2024-03-02T10:53:21;35.70;;;19.20;;
70487;SDS011;57976;48.174;16.370;2024-03-02T10:55:25;39.60;;;21.40;;
70487;SDS011;57976;48.174;16.370;2024-03-02T10:57:31;38.00;;;20.30;;
70487;SDS011;57976;48.174;16.370;2024-03-02T10:59:51;38.80;;;20.80;;
70487;SDS011;57976;48.174;16.370;2024-03-02T11:01:59;38.70;;;20.30;;
70487;SDS011;57976;48.174;16.370;2024-03-02T11:04:09;37.50;;;19.70;;
70487;SDS011;57976;48.174;16.370;2024-03-02T11:06:15;39.40;;;20.80;;
70487;SDS011;57976;48.174;16.370;2024-03-02T11:08:21;37.90;;;21.10;;
70487;SDS011;57976;48.174;16.370;2024-03-02T11:10:26;41.50;;;20.80;;
70487;SDS011;57976;48.174;16.370;2024-03-02T11:12:38;37.00;;;20.10;;
70487;SDS011;57976;48.174;16.370;2024-03-02T11:14:51;33.20;;;19.40;;
70487;SDS011;57976;48.174;16.370;2024-03-02T11:16:58;36.80;;;20.00;;
70487;SDS011;57976;48.174;16.370;2024-03-02T11:19:06;39.50;;;20.70;;
70487;SDS011;57976;48.174;16.370;2024-03-02T11:21:22;36.70;;;20.70;;
70487;SDS011;57976;48.174;16.370;2024-03-02T11:23:33;40.90;;;20.30;;
70487;SDS011;57976;48.174;16.370;2024-03-02T11:25:38;39.90;;;20.70;;
70487;SDS011;57976;48.174;16.370;2024-03-02T11:28:01;39.80;;;20.90;;
70487;SDS011;57976;48.174;16.370;2024-03-02T11:30:10;38.20;;;20.80;;
70487;SDS011;57976;48.174;16.370;2024-03-02T11:32:56;38.00;;;20.60;;
70487;SDS011;57976;48.174;16.370;2024-03-02T11:35:01;40.20;;;21.50;;
70487;SDS011;57976;48.174;16.370;2024-03-02T11:37:07;42.80;;;22.20;;
70487;SDS011;57976;48.174;16.370;2024-03-02T11:39:16;38.50;;;21.50;;
70487;SDS011;57976;48.174;16.370;2024-03-02T11:41:21;41.50;;;22.30;;
70487;SDS011;57976;48.174;16.370;2024-03-02T11:43:26;38.20;;;21.70;;
70487;SDS011;57976;48.174;16.370;2024-03-02T11:45:43;40.90;;;22.00;;
70487;SDS011;57976;48.174;16.370;2024-03-02T11:47:51;38.90;;;21.50;;
70487;SDS011;57976;48.174;16.370;2024-03-02T11:49:57;39.30;;;22.10;;
70487;SDS011;57976;48.174;16.370;2024-03-02T11:52:04;40.50;;;21.60;;
70487;SDS011;57976;48.174;16.370;2024-03-02T11:54:11;36.90;;;22.00;;
70487;SDS011;57976;48.174;16.370;2024-03-02T11:56:16;40.10;;;22.40;;
70487;SDS011;57976;48.174;16.370;2024-03-02T11:58:21;40.40;;;21.80;;
70487;SDS011;57976;48.174;16.370;2024-03-02T12:00:26;38.60;;;21.60;;
70487;SDS011;57976;48.174;16.370;2024-03-02T12:02:31;39.40;;;21.20;;
70487;SDS011;57976;48.174;16.370;2024-03-02T12:04:37;38.90;;;22.30;;
70487;SDS011;57976;48.174;16.370;2024-03-02T12:06:45;38.10;;;20.70;;
70487;SDS011;57976;48.174;16.370;2024-03-02T12:08:53;38.60;;;20.90;;
70487;SDS011;57976;48.174;16.370;2024-03-02T12:10:59;38.60;;;21.70;;